Bookmark and Share
Track history (hours):
 

Emden

Last reported at 2014-Apr-16 04:18 UTC. Time now 2014-Apr-17 03:53 UTC.
Position N 51°02' W 006°00'.

Length 177 m; draft 7.4 m.

Type: Ship. MMSI: 355051000.

NotesDate/timePositionNaut miles runAvg speedWind from/ knotsBaromVisibWave heightAir tempDewpointWater temp
2014-Apr-16 04:18N 51°02' W 006°00'9115.8
2014-Apr-15 22:30N 52°33' W 005°53'2014.1
2014-Apr-15 21:07N 52°53' W 005°53'2910.7
2014-Apr-15 18:21N 53°21' W 006°10'2 1.8
2014-Apr-15 17:28N 53°21' W 006°13'0 0.0
2014-Apr-15 16:22N 53°21' W 006°13'0 0.0
2014-Apr-15 00:31N 53°21' W 006°13'0 0.0
2014-Apr-14 23:31N 53°21' W 006°13'2 1.9
2014-Apr-14 22:34N 53°21' W 006°10'26010.8
2014-Apr-13 22:33N 50°20' W 001°07'1514.6
2014-Apr-13 21:33N 50°25' W 000°45'1312.9
2014-Apr-13 20:33N 50°28' W 000°25'1312.5
2014-Apr-13 19:33N 50°31' W 000°06'1313.1
2014-Apr-13 18:33N 50°35' E 000°13'1514.5
2014-Apr-13 17:33N 50°38' E 000°36'1616.4
2014-Apr-13 16:33N 50°48' E 000°56'1716.6
2014-Apr-13 15:33N 50°58' E 001°17'1615.9
2014-Apr-13 14:33N 51°10' E 001°34'1313.3
2014-Apr-13 13:34N 51°23' E 001°32'1413.6
2014-Apr-13 12:33N 51°29' E 001°12'1514.6
2014-Apr-13 11:33N 51°28' E 000°49'3 3.1
2014-Apr-13 10:31N 51°26' E 000°44'0 0.0
2014-Apr-13 09:22N 51°26' E 000°44'0 0.0
2014-Apr-13 08:31N 51°26' E 000°44'0 0.0
2014-Apr-13 07:31N 51°26' E 000°44'0 0.0
2014-Apr-13 06:31N 51°26' E 000°44'0 0.0
2014-Apr-13 05:31N 51°26' E 000°44'0 0.0
2014-Apr-13 04:31N 51°26' E 000°44'0 0.0
2014-Apr-13 03:31N 51°26' E 000°44'0 0.0
2014-Apr-13 02:31N 51°26' E 000°44'0 0.0
2014-Apr-13 01:31N 51°26' E 000°44'0 0.0
2014-Apr-13 00:31N 51°26' E 000°44'0 0.0
2014-Apr-12 23:31N 51°26' E 000°44'0 0.0
2014-Apr-12 22:31N 51°26' E 000°44'0 0.0
2014-Apr-12 21:31N 51°26' E 000°44'0 0.0
2014-Apr-12 20:31N 51°26' E 000°44'4 3.9
2014-Apr-12 19:34N 51°28' E 000°49'1313.4
2014-Apr-12 18:34N 51°29' E 001°11'1212.0
2014-Apr-12 17:34N 51°26' E 001°29'7 7.2
2014-Apr-12 16:34N 51°30' E 001°39'1413.5
2014-Apr-12 15:33N 51°35' E 001°59'1413.5
2014-Apr-12 14:33N 51°43' E 002°16'1313.0
2014-Apr-12 13:33N 51°52' E 002°32'4112.3
2014-Apr-12 10:15N 52°23' E 003°14'1013.6
2014-Apr-12 09:34N 52°31' E 003°23'1414.0
2014-Apr-12 08:34N 52°42' E 003°37'1514.5
2014-Apr-12 07:32N 52°54' E 003°53'1914.3
2014-Apr-12 06:10N 53°07' E 004°17'2213.3
2014-Apr-12 04:32N 53°26' E 004°36'1212.3
2014-Apr-12 03:34N 53°32' E 004°53'1313.0
2014-Apr-12 02:34N 53°36' E 005°14'1414.0
2014-Apr-12 01:33N 53°40' E 005°37'1514.7
2014-Apr-12 00:34N 53°44' E 006°01'1312.8
2014-Apr-11 23:33N 53°37' E 006°19'1414.1
2014-Apr-11 22:34N 53°33' E 006°42'1413.7
2014-Apr-11 21:33N 53°23' E 006°58'8 7.9
2014-Apr-11 20:33N 53°20' E 007°10'0 0.4
2014-Apr-11 19:33N 53°20' E 007°11'0 0.0
2014-Apr-11 18:33N 53°20' E 007°11'0 0.0
2014-Apr-11 17:33N 53°20' E 007°11'0 0.0
2014-Apr-11 16:33N 53°20' E 007°11'0 0.0
2014-Apr-11 15:33N 53°20' E 007°11'0 0.0
2014-Apr-11 14:33N 53°20' E 007°11'0 0.0
2014-Apr-11 13:33N 53°20' E 007°11'0 0.0
2014-Apr-11 12:33N 53°20' E 007°11'0 0.0
2014-Apr-11 11:33N 53°20' E 007°11'0 0.0
2014-Apr-11 10:33N 53°20' E 007°11'0 0.0
2014-Apr-11 09:33N 53°20' E 007°11'0 0.0
2014-Apr-11 08:32N 53°20' E 007°11'0 0.0
2014-Apr-11 07:32N 53°20' E 007°11'0 0.0
2014-Apr-11 06:33N 53°20' E 007°11'0 0.0
2014-Apr-11 05:32N 53°20' E 007°11'0 0.0
2014-Apr-11 04:33N 53°20' E 007°11'0 0.0
2014-Apr-11 03:32N 53°20' E 007°11'0 0.0
2014-Apr-11 02:33N 53°20' E 007°11'0 0.0
2014-Apr-11 01:32N 53°20' E 007°11'0 0.0
2014-Apr-11 00:32N 53°20' E 007°11'0 0.0
2014-Apr-10 23:32N 53°20' E 007°11'0 0.0
2014-Apr-10 22:32N 53°20' E 007°11'0 0.0
2014-Apr-10 21:32N 53°20' E 007°11'0 0.0
2014-Apr-10 20:32N 53°20' E 007°11'0 0.0
2014-Apr-10 19:32N 53°20' E 007°11'0 0.0
2014-Apr-10 18:32N 53°20' E 007°11'0 0.0
2014-Apr-10 17:32N 53°20' E 007°11'0 0.0
2014-Apr-10 16:32N 53°20' E 007°11'0 0.0
2014-Apr-10 15:32N 53°20' E 007°11'0 0.0
2014-Apr-10 14:32N 53°20' E 007°11'0 0.0
2014-Apr-10 13:32N 53°20' E 007°11'0 0.0
2014-Apr-10 12:32N 53°20' E 007°11'0 0.0
2014-Apr-10 11:32N 53°20' E 007°11'0 0.2
2014-Apr-10 10:33N 53°20' E 007°11'6 5.9
2014-Apr-10 09:33N 53°19' E 007°01'1212.2
2014-Apr-10 08:34N 53°29' E 006°49'1413.7
2014-Apr-10 07:33N 53°37' E 006°30'8 8.2
2014-Apr-10 06:33N 53°39' E 006°16'1413.9
2014-Apr-10 05:33N 53°39' E 005°53'1616.3
2014-Apr-10 04:34N 53°34' E 005°27'1716.6
2014-Apr-10 03:34N 53°28' E 005°01'1715.9
2014-Apr-10 02:30N 53°18' E 004°38'1616.9
2014-Apr-10 01:33N 53°04' E 004°25'1716.9
2014-Apr-10 00:33N 52°49' E 004°12'1716.8
2014-Apr-09 23:33N 52°36' E 003°54'1716.6
2014-Apr-09 22:33N 52°25' E 003°34'1716.8
2014-Apr-09 21:33N 52°12' E 003°16'1616.5
2014-Apr-09 20:33N 52°00' E 002°58'1716.5
2014-Apr-09 19:33N 51°48' E 002°40'1616.2
2014-Apr-09 18:33N 51°35' E 002°24'1615.5
2014-Apr-09 17:33N 51°22' E 002°10'1514.7
2014-Apr-09 16:33N 51°11' E 001°55'1514.8
2014-Apr-09 15:33N 51°01' E 001°37'1414.4
2014-Apr-09 14:33N 50°49' E 001°25'1914.5
2014-Apr-09 13:15N 50°34' E 001°06'1015.1
2014-Apr-09 12:34N 50°29' E 000°52'1715.3
2014-Apr-09 11:28N 50°24' E 000°27'1415.2
2014-Apr-09 10:33N 50°21' E 000°06'3614.9
2014-Apr-09 08:08N 50°11' W 000°49'914.9
2014-Apr-09 07:33N 50°09' W 001°01'1715.3
2014-Apr-09 06:26N 50°04' W 001°27'1515.8
2014-Apr-09 05:31N 49°59' W 001°49'  

Dump ship's entire track history

sailing weather and tide predictions

Emden — 3ERP5 — position and weather